»·PEaware :: N5388K KSNA-KAVX

N5388K :: KSNA-KAVX

FLIGHT INFORMATION

Flight Status: Arrived
Operator: Privately registered:
United States
More flights under this callsign
Pilot: Peter K. (32806)
Aircraft: CESSNA 172 SKYHAWK
(C172)
More flights by this aircraft type
Origin: KSNA John Wayne-Orange Co
United States
Destination: KAVX Catalina
United States
More flights between these airports :: More routes between these airports
Route: SLI V21 SXC
File this flight plan on PilotEdge
Remarks:
Altitude:
(Current/Filed)
4,000ft
Speed:
(Current/Filed)
115kts
Departed: 14-Jan-21 08:18 AM
Arrived: 14-Jan-21 08:55 AM
Distance/Time
Traveled:
32nm/0:37
Distance/Time
To Go:
Arrived

Flight Plot

Page will automatically refresh every two minutes.


Map Options




Map Legend


Flown Route
Filed Route
Departure Airport
Arrival Airport
Navaid (VOR, NDB)
Fix

Horizontal Profiles

Position Reports

Time Latitude Longitude Heading Altitude Ground
Speed
14-Jan-21 07:54 33.671189 -117.868027 211 60ft 0kts
14-Jan-21 07:55 33.671189 -117.868027 211 60ft 0kts
14-Jan-21 07:56 33.671189 -117.868027 211 60ft 0kts
14-Jan-21 07:57 33.671189 -117.868027 211 60ft 0kts
14-Jan-21 07:58 33.671189 -117.868027 211 60ft 0kts
14-Jan-21 07:59 33.671189 -117.868027 211 60ft 0kts
14-Jan-21 08:00 33.671189 -117.868027 211 60ft 0kts
14-Jan-21 08:01 33.671189 -117.868027 211 60ft 0kts
14-Jan-21 08:02 33.671189 -117.868027 210 60ft 0kts
14-Jan-21 08:03 33.671189 -117.868027 210 60ft 0kts
14-Jan-21 08:04 33.671189 -117.868027 210 60ft 0kts
14-Jan-21 08:05 33.671189 -117.868027 210 60ft 0kts
14-Jan-21 08:06 33.671189 -117.868027 210 60ft 0kts
14-Jan-21 08:07 33.671189 -117.868027 210 60ft 0kts
14-Jan-21 08:08 33.671189 -117.868027 210 60ft 0kts
14-Jan-21 08:09 33.671189 -117.868027 210 60ft 0kts
14-Jan-21 08:10 33.671189 -117.868027 210 60ft 0kts
14-Jan-21 08:11 33.671843 -117.868296 28 60ft 5kts
14-Jan-21 08:12 33.673768 -117.867211 331 60ft 9kts
14-Jan-21 08:13 33.676540 -117.865542 27 60ft 12kts
14-Jan-21 08:14 33.679648 -117.863568 28 60ft 7kts
14-Jan-21 08:15 33.679950 -117.863585 297 60ft 0kts
14-Jan-21 08:16 33.679950 -117.863585 297 60ft 0kts
14-Jan-21 08:17 33.672072 -117.869221 209 288ft 78kts
14-Jan-21 08:18 33.657283 -117.887924 232 1264ft 80kts
14-Jan-21 08:19 33.642959 -117.909650 234 2015ft 102kts
14-Jan-21 08:20 33.626220 -117.936417 235 2665ft 88kts
14-Jan-21 08:21 33.625761 -117.962037 311 3483ft 83kts
14-Jan-21 08:22 33.642438 -117.984731 312 4032ft 105kts
14-Jan-21 08:23 33.662124 -118.012083 313 4006ft 105kts
14-Jan-21 08:24 33.680993 -118.039652 294 4028ft 106kts
14-Jan-21 08:25 33.679085 -118.076007 262 4025ft 110kts
14-Jan-21 08:26 33.674877 -118.112400 264 4042ft 110kts
14-Jan-21 08:27 33.670458 -118.149091 255 4023ft 112kts
14-Jan-21 08:29 33.649755 -118.176387 219 3984ft 115kts
14-Jan-21 08:30 33.624798 -118.200470 223 3948ft 115kts
14-Jan-21 08:31 33.599393 -118.223651 216 3949ft 113kts
14-Jan-21 08:32 33.574632 -118.247421 225 3939ft 114kts
14-Jan-21 08:33 33.550689 -118.271393 218 4025ft 114kts
14-Jan-21 08:34 33.521605 -118.286142 193 4088ft 118kts
14-Jan-21 08:35 33.488841 -118.295884 194 4019ft 122kts
14-Jan-21 08:36 33.456424 -118.306104 196 3942ft 120kts
14-Jan-21 08:37 33.425044 -118.317221 194 3995ft 117kts
14-Jan-21 08:38 33.393387 -118.327353 195 4072ft 117kts
14-Jan-21 08:39 33.361966 -118.339127 202 4088ft 121kts
14-Jan-21 08:40 33.352746 -118.369790 299 4136ft 105kts
14-Jan-21 08:41 33.369723 -118.399373 314 4073ft 107kts
14-Jan-21 08:42 33.390682 -118.420545 11 3950ft 103kts
14-Jan-21 08:42 33.413108 -118.413513 11 3972ft 97kts
14-Jan-21 08:44 33.444419 -118.409084 8 4067ft 97kts
14-Jan-21 08:45 33.471640 -118.405018 4 4104ft 98kts
14-Jan-21 08:46 33.497023 -118.412731 312 3979ft 103kts
14-Jan-21 08:47 33.517375 -118.437165 323 3615ft 103kts
14-Jan-21 08:47 33.536947 -118.450795 23 3528ft 95kts
14-Jan-21 08:49 33.516316 -118.426122 144 3498ft 108kts
14-Jan-21 08:49 33.494239 -118.412329 155 3532ft 107kts
14-Jan-21 08:50 33.464451 -118.408692 181 3535ft 110kts
14-Jan-21 08:51 33.434107 -118.412386 186 3316ft 105kts
14-Jan-21 08:52 33.412116 -118.423756 242 2572ft 82kts
14-Jan-21 08:53 33.398891 -118.425642 58 1901ft 59kts
14-Jan-21 08:54 33.405042 -118.415747 56 1543ft 10kts
14-Jan-21 08:55 33.404903 -118.415150 184 1540ft 0kts
14-Jan-21 08:56 33.404903 -118.415150 184 1540ft 0kts

Navigation Log

Ident Type
Flight plan parsing failed, navigation log unavailable